sensor_id;sensor_type;location;lat;lon;timestamp;pressure;altitude;pressure_sealevel;temperature;humidity
72116;BME280;59991;52.140;5.428;2024-01-06T00:00:10;100379.59;;;4.65;100.00
72116;BME280;59991;52.140;5.428;2024-01-06T00:00:42;100377.25;;;4.63;100.00
72116;BME280;59991;52.140;5.428;2024-01-06T00:01:14;100374.94;;;4.62;100.00
72116;BME280;59991;52.140;5.428;2024-01-06T00:01:47;100376.47;;;4.63;100.00
72116;BME280;59991;52.140;5.428;2024-01-06T00:02:37;100374.94;;;4.62;100.00
72116;BME280;59991;52.140;5.428;2024-01-06T00:03:58;100381.47;;;4.61;100.00
72116;BME280;59991;52.140;5.428;2024-01-06T00:04:30;100376.84;;;4.61;100.00
72116;BME280;59991;52.140;5.428;2024-01-06T00:05:02;100383.03;;;4.62;100.00
72116;BME280;59991;52.140;5.428;2024-01-06T00:05:33;100376.06;;;4.61;100.00
72116;BME280;59991;52.140;5.428;2024-01-06T00:06:05;100382.25;;;4.61;100.00
72116;BME280;59991;52.140;5.428;2024-01-06T00:06:37;100374.50;;;4.60;100.00
72116;BME280;59991;52.140;5.428;2024-01-06T00:07:08;100381.81;;;4.59;100.00
72116;BME280;59991;52.140;5.428;2024-01-06T00:07:40;100381.03;;;4.59;100.00
72116;BME280;59991;52.140;5.428;2024-01-06T00:08:12;100376.41;;;4.59;100.00
72116;BME280;59991;52.140;5.428;2024-01-06T00:08:43;100385.63;;;4.58;100.00
72116;BME280;59991;52.140;5.428;2024-01-06T00:09:15;100386.06;;;4.60;100.00
72116;BME280;59991;52.140;5.428;2024-01-06T00:09:46;100386.06;;;4.60;100.00
72116;BME280;59991;52.140;5.428;2024-01-06T00:10:18;100382.59;;;4.60;100.00
72116;BME280;59991;52.140;5.428;2024-01-06T00:10:50;100383.38;;;4.60;100.00
72116;BME280;59991;52.140;5.428;2024-01-06T00:11:22;100380.69;;;4.60;100.00
72116;BME280;59991;52.140;5.428;2024-01-06T00:11:54;100387.22;;;4.59;100.00
72116;BME280;59991;52.140;5.428;2024-01-06T00:12:25;100382.59;;;4.60;100.00
72116;BME280;59991;52.140;5.428;2024-01-06T00:12:57;100388.00;;;4.60;100.00
72116;BME280;59991;52.140;5.428;2024-01-06T00:13:29;100385.28;;;4.60;100.00
72116;BME280;59991;52.140;5.428;2024-01-06T00:14:00;100390.69;;;4.60;100.00
72116;BME280;59991;52.140;5.428;2024-01-06T00:14:51;100394.19;;;4.60;100.00
72116;BME280;59991;52.140;5.428;2024-01-06T00:15:23;100393.41;;;4.60;100.00
72116;BME280;59991;52.140;5.428;2024-01-06T00:15:54;100392.59;;;4.59;100.00
72116;BME280;59991;52.140;5.428;2024-01-06T00:16:26;100393.75;;;4.58;100.00
72116;BME280;59991;52.140;5.428;2024-01-06T00:17:00;100396.44;;;4.58;100.00
72116;BME280;59991;52.140;5.428;2024-01-06T00:17:31;100396.44;;;4.58;100.00
72116;BME280;59991;52.140;5.428;2024-01-06T00:18:03;100400.25;;;4.57;100.00
72116;BME280;59991;52.140;5.428;2024-01-06T00:18:35;100397.56;;;4.57;100.00
72116;BME280;59991;52.140;5.428;2024-01-06T00:19:07;100409.94;;;4.58;100.00
72116;BME280;59991;52.140;5.428;2024-01-06T00:19:38;100408.72;;;4.56;100.00
72116;BME280;59991;52.140;5.428;2024-01-06T00:20:10;100406.34;;;4.54;100.00
72116;BME280;59991;52.140;5.428;2024-01-06T00:20:42;100412.88;;;4.53;100.00
72116;BME280;59991;52.140;5.428;2024-01-06T00:21:32;100415.94;;;4.51;100.00
72116;BME280;59991;52.140;5.428;2024-01-06T00:22:21;100409.31;;;4.49;100.00
72116;BME280;59991;52.140;5.428;2024-01-06T00:22:53;100405.03;;;4.48;100.00
72116;BME280;59991;52.140;5.428;2024-01-06T00:23:24;100410.44;;;4.48;100.00
72116;BME280;59991;52.140;5.428;2024-01-06T00:23:56;100414.25;;;4.47;100.00
72116;BME280;59991;52.140;5.428;2024-01-06T00:24:27;100410.00;;;4.46;100.00
72116;BME280;59991;52.140;5.428;2024-01-06T00:24:59;100420.78;;;4.46;100.00
72116;BME280;59991;52.140;5.428;2024-01-06T00:25:31;100416.53;;;4.45;100.00
72116;BME280;59991;52.140;5.428;2024-01-06T00:26:03;100412.25;;;4.44;100.00
72116;BME280;59991;52.140;5.428;2024-01-06T00:26:35;100413.81;;;4.45;100.00
72116;BME280;59991;52.140;5.428;2024-01-06T00:27:07;100415.38;;;4.46;100.00
72116;BME280;59991;52.140;5.428;2024-01-06T00:27:39;100418.09;;;4.46;100.00
72116;BME280;59991;52.140;5.428;2024-01-06T00:28:10;100418.88;;;4.46;100.00
72116;BME280;59991;52.140;5.428;2024-01-06T00:28:42;100425.41;;;4.45;100.00
72116;BME280;59991;52.140;5.428;2024-01-06T00:29:13;100420.34;;;4.44;100.00
72116;BME280;59991;52.140;5.428;2024-01-06T00:29:45;100421.47;;;4.43;100.00
72116;BME280;59991;52.140;5.428;2024-01-06T00:30:16;100422.63;;;4.42;100.00
72116;BME280;59991;52.140;5.428;2024-01-06T00:31:07;100424.53;;;4.41;100.00
72116;BME280;59991;52.140;5.428;2024-01-06T00:31:39;100418.38;;;4.41;100.00
72116;BME280;59991;52.140;5.428;2024-01-06T00:32:10;100418.38;;;4.41;100.00
72116;BME280;59991;52.140;5.428;2024-01-06T00:32:42;100416.78;;;4.40;100.00
72116;BME280;59991;52.140;5.428;2024-01-06T00:33:13;100417.56;;;4.40;100.00
72116;BME280;59991;52.140;5.428;2024-01-06T00:33:45;100417.91;;;4.39;100.00
72116;BME280;59991;52.140;5.428;2024-01-06T00:34:17;100418.72;;;4.39;100.00
72116;BME280;59991;52.140;5.428;2024-01-06T00:34:49;100423.75;;;4.41;100.00
72116;BME280;59991;52.140;5.428;2024-01-06T00:35:20;100415.66;;;4.41;100.00
72116;BME280;59991;52.140;5.428;2024-01-06T00:35:52;100425.34;;;4.42;100.00
72116;BME280;59991;52.140;5.428;2024-01-06T00:36:23;100410.59;;;4.39;100.00
72116;BME280;59991;52.140;5.428;2024-01-06T00:36:55;100421.84;;;4.41;100.00
72116;BME280;59991;52.140;5.428;2024-01-06T00:37:27;100419.50;;;4.40;100.00
72116;BME280;59991;52.140;5.428;2024-01-06T00:37:58;100426.47;;;4.41;100.00
72116;BME280;59991;52.140;5.428;2024-01-06T00:38:32;100421.84;;;4.41;100.00
72116;BME280;59991;52.140;5.428;2024-01-06T00:39:03;100425.69;;;4.40;100.00
72116;BME280;59991;52.140;5.428;2024-01-06T00:39:35;100422.19;;;4.40;100.00
72116;BME280;59991;52.140;5.428;2024-01-06T00:40:07;100421.41;;;4.39;100.00
72116;BME280;59991;52.140;5.428;2024-01-06T00:40:38;100425.22;;;4.38;100.00
72116;BME280;59991;52.140;5.428;2024-01-06T00:41:28;100422.88;;;4.37;100.00
72116;BME280;59991;52.140;5.428;2024-01-06T00:42:00;100426.69;;;4.36;100.00
72116;BME280;59991;52.140;5.428;2024-01-06T00:42:31;100422.44;;;4.35;100.00
72116;BME280;59991;52.140;5.428;2024-01-06T00:43:03;100422.78;;;4.33;100.00
72116;BME280;59991;52.140;5.428;2024-01-06T00:43:35;100423.56;;;4.34;100.00
72116;BME280;59991;52.140;5.428;2024-01-06T00:44:06;100424.69;;;4.33;100.00
72116;BME280;59991;52.140;5.428;2024-01-06T00:44:38;100418.50;;;4.32;100.00
72116;BME280;59991;52.140;5.428;2024-01-06T00:45:09;100421.53;;;4.31;100.00
72116;BME280;59991;52.140;5.428;2024-01-06T00:45:41;100426.16;;;4.30;100.00
72116;BME280;59991;52.140;5.428;2024-01-06T00:46:12;100426.94;;;4.31;100.00
72116;BME280;59991;52.140;5.428;2024-01-06T00:46:44;100422.69;;;4.30;100.00
72116;BME280;59991;52.140;5.428;2024-01-06T00:47:16;100423.81;;;4.29;100.00
72116;BME280;59991;52.140;5.428;2024-01-06T00:47:48;100429.19;;;4.29;100.00
72116;BME280;59991;52.140;5.428;2024-01-06T00:48:20;100426.50;;;4.29;100.00
72116;BME280;59991;52.140;5.428;2024-01-06T00:48:52;100431.13;;;4.28;100.00
72116;BME280;59991;52.140;5.428;2024-01-06T00:49:23;100427.63;;;4.28;100.00
72116;BME280;59991;52.140;5.428;2024-01-06T00:50:12;100429.97;;;4.29;100.00
72116;BME280;59991;52.140;5.428;2024-01-06T00:50:44;100429.97;;;4.29;100.00
72116;BME280;59991;52.140;5.428;2024-01-06T00:51:16;100430.78;;;4.30;100.00
72116;BME280;59991;52.140;5.428;2024-01-06T00:51:47;100432.34;;;4.31;100.00
72116;BME280;59991;52.140;5.428;2024-01-06T00:52:19;100429.66;;;4.31;100.00
72116;BME280;59991;52.140;5.428;2024-01-06T00:52:50;100427.72;;;4.31;100.00
72116;BME280;59991;52.140;5.428;2024-01-06T00:53:23;100431.22;;;4.32;100.00
72116;BME280;59991;52.140;5.428;2024-01-06T00:53:55;100430.09;;;4.33;100.00
72116;BME280;59991;52.140;5.428;2024-01-06T00:54:27;100435.50;;;4.33;100.00
72116;BME280;59991;52.140;5.428;2024-01-06T00:55:18;100431.22;;;4.32;100.00
72116;BME280;59991;52.140;5.428;2024-01-06T00:55:49;100435.81;;;4.31;100.00
72116;BME280;59991;52.140;5.428;2024-01-06T00:56:21;100430.78;;;4.30;100.00
72116;BME280;59991;52.140;5.428;2024-01-06T00:56:52;100426.50;;;4.29;100.00
72116;BME280;59991;52.140;5.428;2024-01-06T00:57:28;100429.19;;;4.29;100.00
72116;BME280;59991;52.140;5.428;2024-01-06T00:58:18;100427.28;;;4.29;100.00
72116;BME280;59991;52.140;5.428;2024-01-06T00:58:50;100431.13;;;4.28;100.00
72116;BME280;59991;52.140;5.428;2024-01-06T00:59:21;100426.50;;;4.29;100.00
72116;BME280;59991;52.140;5.428;2024-01-06T00:59:53;100424.94;;;4.28;100.00
72116;BME280;59991;52.140;5.428;2024-01-06T01:00:24;100438.44;;;4.28;100.00
72116;BME280;59991;52.140;5.428;2024-01-06T01:00:56;100430.31;;;4.28;100.00
72116;BME280;59991;52.140;5.428;2024-01-06T01:01:28;100434.50;;;4.25;100.00
72116;BME280;59991;52.140;5.428;2024-01-06T01:02:00;100437.97;;;4.26;100.00
72116;BME280;59991;52.140;5.428;2024-01-06T01:02:32;100429.44;;;4.24;100.00
72116;BME280;59991;52.140;5.428;2024-01-06T01:03:04;100434.09;;;4.23;100.00
72116;BME280;59991;52.140;5.428;2024-01-06T01:03:35;100437.91;;;4.22;100.00
72116;BME280;59991;52.140;5.428;2024-01-06T01:04:07;100440.94;;;4.21;100.00
72116;BME280;59991;52.140;5.428;2024-01-06T01:04:39;100437.47;;;4.20;100.00
72116;BME280;59991;52.140;5.428;2024-01-06T01:05:11;100435.88;;;4.19;100.00
72116;BME280;59991;52.140;5.428;2024-01-06T01:05:42;100438.59;;;4.19;100.00
72116;BME280;59991;52.140;5.428;2024-01-06T01:06:14;100439.72;;;4.18;100.00
72116;BME280;59991;52.140;5.428;2024-01-06T01:06:45;100442.41;;;4.18;100.00
72116;BME280;59991;52.140;5.428;2024-01-06T01:07:17;100436.22;;;4.18;100.00
72116;BME280;59991;52.140;5.428;2024-01-06T01:07:49;100436.22;;;4.18;100.00
72116;BME280;59991;52.140;5.428;2024-01-06T01:08:20;100444.31;;;4.18;100.00
72116;BME280;59991;52.140;5.428;2024-01-06T01:08:52;100442.75;;;4.16;100.00
72116;BME280;59991;52.140;5.428;2024-01-06T01:09:24;100440.06;;;4.16;100.00
72116;BME280;59991;52.140;5.428;2024-01-06T01:09:56;100447.03;;;4.18;100.00
72116;BME280;59991;52.140;5.428;2024-01-06T01:10:28;100447.81;;;4.18;100.00
72116;BME280;59991;52.140;5.428;2024-01-06T01:10:59;100450.50;;;4.18;100.00
72116;BME280;59991;52.140;5.428;2024-01-06T01:11:31;100447.03;;;4.18;100.00
72116;BME280;59991;52.140;5.428;2024-01-06T01:12:03;100450.84;;;4.16;100.00
72116;BME280;59991;52.140;5.428;2024-01-06T01:12:34;100445.44;;;4.16;100.00
72116;BME280;59991;52.140;5.428;2024-01-06T01:13:06;100444.66;;;4.16;100.00
72116;BME280;59991;52.140;5.428;2024-01-06T01:13:37;100448.94;;;4.17;100.00
72116;BME280;59991;52.140;5.428;2024-01-06T01:14:09;100452.75;;;4.16;100.00
72116;BME280;59991;52.140;5.428;2024-01-06T01:14:41;100455.13;;;4.18;100.00
72116;BME280;59991;52.140;5.428;2024-01-06T01:15:13;100452.75;;;4.16;100.00
72116;BME280;59991;52.140;5.428;2024-01-06T01:16:01;100451.19;;;4.15;100.00
72116;BME280;59991;52.140;5.428;2024-01-06T01:16:34;100459.97;;;4.12;100.00
72116;BME280;59991;52.140;5.428;2024-01-06T01:17:05;100455.34;;;4.12;100.00
72116;BME280;59991;52.140;5.428;2024-01-06T01:17:37;100456.81;;;4.10;100.00
72116;BME280;59991;52.140;5.428;2024-01-06T01:18:09;100462.56;;;4.08;100.00
72116;BME280;59991;52.140;5.428;2024-01-06T01:18:41;100463.69;;;4.07;100.00
72116;BME280;59991;52.140;5.428;2024-01-06T01:19:12;100461.44;;;4.09;100.00
72116;BME280;59991;52.140;5.428;2024-01-06T01:19:45;100461.78;;;4.08;100.00
72116;BME280;59991;52.140;5.428;2024-01-06T01:20:16;100461.78;;;4.08;100.00
72116;BME280;59991;52.140;5.428;2024-01-06T01:20:48;100466.03;;;4.09;100.00
72116;BME280;59991;52.140;5.428;2024-01-06T01:21:19;100467.16;;;4.08;100.00
72116;BME280;59991;52.140;5.428;2024-01-06T01:21:51;100467.50;;;4.06;100.00
72116;BME280;59991;52.140;5.428;2024-01-06T01:22:26;100472.91;;;4.06;100.00
72116;BME280;59991;52.140;5.428;2024-01-06T01:22:58;100473.69;;;4.07;100.00
72116;BME280;59991;52.140;5.428;2024-01-06T01:23:30;100469.09;;;4.07;100.00
72116;BME280;59991;52.140;5.428;2024-01-06T01:24:01;100471.44;;;4.09;100.00
72116;BME280;59991;52.140;5.428;2024-01-06T01:24:34;100470.66;;;4.08;100.00
72116;BME280;59991;52.140;5.428;2024-01-06T01:25:05;100481.09;;;4.10;100.00
72116;BME280;59991;52.140;5.428;2024-01-06T01:25:39;100480.66;;;4.08;100.00
72116;BME280;59991;52.140;5.428;2024-01-06T01:26:10;100470.66;;;4.08;100.00
72116;BME280;59991;52.140;5.428;2024-01-06T01:26:42;100477.19;;;4.07;100.00
72116;BME280;59991;52.140;5.428;2024-01-06T01:27:14;100478.31;;;4.06;100.00
72116;BME280;59991;52.140;5.428;2024-01-06T01:27:45;100474.75;;;4.02;100.00
72116;BME280;59991;52.140;5.428;2024-01-06T01:28:17;100478.56;;;4.01;100.00
72116;BME280;59991;52.140;5.428;2024-01-06T01:28:48;100479.34;;;4.02;100.00
72116;BME280;59991;52.140;5.428;2024-01-06T01:29:20;100478.13;;;3.99;100.00
72116;BME280;59991;52.140;5.428;2024-01-06T01:29:52;100482.38;;;4.00;100.00
72116;BME280;59991;52.140;5.428;2024-01-06T01:30:24;100479.25;;;3.98;100.00
72116;BME280;59991;52.140;5.428;2024-01-06T01:30:56;100481.16;;;3.98;100.00
72116;BME280;59991;52.140;5.428;2024-01-06T01:31:28;100478.78;;;3.96;100.00
72116;BME280;59991;52.140;5.428;2024-01-06T01:31:59;100483.06;;;3.97;100.00
72116;BME280;59991;52.140;5.428;2024-01-06T01:32:31;100490.38;;;3.97;100.00
72116;BME280;59991;52.140;5.428;2024-01-06T01:33:20;100485.31;;;3.95;100.00
72116;BME280;59991;52.140;5.428;2024-01-06T01:33:52;100482.94;;;3.94;100.00
72116;BME280;59991;52.140;5.428;2024-01-06T01:34:24;100484.88;;;3.93;100.00
72116;BME280;59991;52.140;5.428;2024-01-06T01:34:56;100492.16;;;3.93;100.00
72116;BME280;59991;52.140;5.428;2024-01-06T01:35:27;100481.72;;;3.91;100.00
72116;BME280;59991;52.140;5.428;2024-01-06T01:35:59;100480.16;;;3.90;100.00
72116;BME280;59991;52.140;5.428;2024-01-06T01:36:33;100490.16;;;3.90;100.00
72116;BME280;59991;52.140;5.428;2024-01-06T01:37:05;100490.47;;;3.88;100.00
72116;BME280;59991;52.140;5.428;2024-01-06T01:37:37;100485.09;;;3.88;100.00
72116;BME280;59991;52.140;5.428;2024-01-06T01:38:25;100491.59;;;3.87;100.00
72116;BME280;59991;52.140;5.428;2024-01-06T01:38:57;100494.31;;;3.87;100.00
72116;BME280;59991;52.140;5.428;2024-01-06T01:39:29;100494.66;;;3.86;100.00
72116;BME280;59991;52.140;5.428;2024-01-06T01:40:18;100494.66;;;3.86;100.00
72116;BME280;59991;52.140;5.428;2024-01-06T01:40:50;100495.81;;;3.85;100.00
72116;BME280;59991;52.140;5.428;2024-01-06T01:41:21;100493.44;;;3.83;100.00
72116;BME280;59991;52.140;5.428;2024-01-06T01:41:53;100500.75;;;3.83;100.00
72116;BME280;59991;52.140;5.428;2024-01-06T01:42:25;100504.22;;;3.83;100.00
72116;BME280;59991;52.140;5.428;2024-01-06T01:42:56;100502.66;;;3.82;100.00
72116;BME280;59991;52.140;5.428;2024-01-06T01:43:28;100505.34;;;3.82;100.00
72116;BME280;59991;52.140;5.428;2024-01-06T01:44:00;100506.47;;;3.81;100.00
72116;BME280;59991;52.140;5.428;2024-01-06T01:44:32;100508.38;;;3.80;100.00
72116;BME280;59991;52.140;5.428;2024-01-06T01:45:55;100509.16;;;3.81;100.00
72116;BME280;59991;52.140;5.428;2024-01-06T01:46:28;100509.16;;;3.81;100.00
72116;BME280;59991;52.140;5.428;2024-01-06T01:47:19;100505.34;;;3.82;100.00
72116;BME280;59991;52.140;5.428;2024-01-06T01:47:52;100506.13;;;3.83;100.00
72116;BME280;59991;52.140;5.428;2024-01-06T01:48:24;100513.44;;;3.82;100.00
72116;BME280;59991;52.140;5.428;2024-01-06T01:48:58;100518.06;;;3.81;100.00
72116;BME280;59991;52.140;5.428;2024-01-06T01:49:31;100519.97;;;3.81;100.00
72116;BME280;59991;52.140;5.428;2024-01-06T01:50:21;100518.38;;;3.80;100.00
72116;BME280;59991;52.140;5.428;2024-01-06T01:50:53;100512.22;;;3.79;100.00
72116;BME280;59991;52.140;5.428;2024-01-06T01:51:34;100515.25;;;3.78;100.00
72116;BME280;59991;52.140;5.428;2024-01-06T01:52:06;100516.03;;;3.78;100.00
72116;BME280;59991;52.140;5.428;2024-01-06T01:52:38;100518.72;;;3.78;100.00
72116;BME280;59991;52.140;5.428;2024-01-06T01:53:12;100521.41;;;3.78;100.00
72116;BME280;59991;52.140;5.428;2024-01-06T01:53:44;100521.41;;;3.78;100.00
72116;BME280;59991;52.140;5.428;2024-01-06T01:54:15;100522.22;;;3.79;100.00
72116;BME280;59991;52.140;5.428;2024-01-06T01:54:47;100521.41;;;3.78;100.00
72116;BME280;59991;52.140;5.428;2024-01-06T01:55:19;100519.84;;;3.77;100.00
72116;BME280;59991;52.140;5.428;2024-01-06T01:55:51;100525.25;;;3.77;100.00
72116;BME280;59991;52.140;5.428;2024-01-06T01:56:24;100524.44;;;3.77;100.00
72116;BME280;59991;52.140;5.428;2024-01-06T01:56:57;100520.97;;;3.76;100.00
72116;BME280;59991;52.140;5.428;2024-01-06T01:57:28;100522.88;;;3.76;100.00
72116;BME280;59991;52.140;5.428;2024-01-06T01:58:50;100511.75;;;3.77;100.00
72116;BME280;59991;52.140;5.428;2024-01-06T01:59:22;100523.34;;;3.78;100.00
72116;BME280;59991;52.140;5.428;2024-01-06T01:59:55;100520.28;;;3.79;100.00
72116;BME280;59991;52.140;5.428;2024-01-06T02:01:18;100519.97;;;3.81;100.00
72116;BME280;59991;52.140;5.428;2024-01-06T02:01:51;100521.53;;;3.82;100.00
72116;BME280;59991;52.140;5.428;2024-01-06T02:02:22;100523.09;;;3.83;100.00
72116;BME280;59991;52.140;5.428;2024-01-06T02:02:54;100523.91;;;3.84;100.00
72116;BME280;59991;52.140;5.428;2024-01-06T02:03:28;100524.69;;;3.84;100.00
72116;BME280;59991;52.140;5.428;2024-01-06T02:04:01;100530.50;;;3.86;100.00
72116;BME280;59991;52.140;5.428;2024-01-06T02:04:33;100525.88;;;3.87;100.00
72116;BME280;59991;52.140;5.428;2024-01-06T02:05:04;100525.56;;;3.88;100.00
72116;BME280;59991;52.140;5.428;2024-01-06T02:05:36;100524.75;;;3.88;100.00
72116;BME280;59991;52.140;5.428;2024-01-06T02:06:08;100528.69;;;3.90;100.00
72116;BME280;59991;52.140;5.428;2024-01-06T02:06:39;100528.69;;;3.90;100.00
72116;BME280;59991;52.140;5.428;2024-01-06T02:07:11;100529.50;;;3.91;100.00
72116;BME280;59991;52.140;5.428;2024-01-06T02:07:42;100533.31;;;3.90;100.00
72116;BME280;59991;52.140;5.428;2024-01-06T02:08:14;100525.56;;;3.88;100.00
72116;BME280;59991;52.140;5.428;2024-01-06T02:08:46;100532.53;;;3.89;100.00
72116;BME280;59991;52.140;5.428;2024-01-06T02:09:17;100529.03;;;3.89;100.00
72116;BME280;59991;52.140;5.428;2024-01-06T02:09:49;100527.47;;;3.88;100.00
72116;BME280;59991;52.140;5.428;2024-01-06T02:10:21;100529.81;;;3.89;100.00
72116;BME280;59991;52.140;5.428;2024-01-06T02:10:55;100532.53;;;3.89;100.00
72116;BME280;59991;52.140;5.428;2024-01-06T02:11:27;100533.66;;;3.88;100.00
72116;BME280;59991;52.140;5.428;2024-01-06T02:11:59;100536.34;;;3.88;100.00
72116;BME280;59991;52.140;5.428;2024-01-06T02:12:30;100536.34;;;3.88;100.00
72116;BME280;59991;52.140;5.428;2024-01-06T02:13:10;100524.44;;;3.89;100.00
72116;BME280;59991;52.140;5.428;2024-01-06T02:13:41;100540.28;;;3.91;100.00
72116;BME280;59991;52.140;5.428;2024-01-06T02:14:13;100540.28;;;3.91;100.00
72116;BME280;59991;52.140;5.428;2024-01-06T02:14:44;100539.16;;;3.92;100.00
72116;BME280;59991;52.140;5.428;2024-01-06T02:15:16;100540.28;;;3.91;100.00
72116;BME280;59991;52.140;5.428;2024-01-06T02:15:47;100541.06;;;3.91;100.00
72116;BME280;59991;52.140;5.428;2024-01-06T02:16:19;100538.38;;;3.91;100.00
72116;BME280;59991;52.140;5.428;2024-01-06T02:16:50;100543.31;;;3.89;100.00
72116;BME280;59991;52.140;5.428;2024-01-06T02:17:22;100539.03;;;3.88;100.00
72116;BME280;59991;52.140;5.428;2024-01-06T02:17:53;100537.13;;;3.89;100.00
72116;BME280;59991;52.140;5.428;2024-01-06T02:18:25;100540.16;;;3.87;100.00
72116;BME280;59991;52.140;5.428;2024-01-06T02:18:57;100545.56;;;3.87;100.00
72116;BME280;59991;52.140;5.428;2024-01-06T02:19:30;100539.38;;;3.87;100.00
72116;BME280;59991;52.140;5.428;2024-01-06T02:20:01;100543.97;;;3.86;100.00
72116;BME280;59991;52.140;5.428;2024-01-06T02:20:34;100544.78;;;3.87;100.00
72116;BME280;59991;52.140;5.428;2024-01-06T02:21:06;100538.25;;;3.88;100.00
72116;BME280;59991;52.140;5.428;2024-01-06T02:21:41;100544.44;;;3.88;100.00
72116;BME280;59991;52.140;5.428;2024-01-06T02:22:13;100547.13;;;3.88;100.00
72116;BME280;59991;52.140;5.428;2024-01-06T02:22:46;100548.69;;;3.89;100.00
72116;BME280;59991;52.140;5.428;2024-01-06T02:23:17;100546.00;;;3.89;100.00
72116;BME280;59991;52.140;5.428;2024-01-06T02:23:48;100548.69;;;3.89;100.00
72116;BME280;59991;52.140;5.428;2024-01-06T02:24:20;100551.41;;;3.89;100.00
72116;BME280;59991;52.140;5.428;2024-01-06T02:25:11;100542.84;;;3.87;100.00
72116;BME280;59991;52.140;5.428;2024-01-06T02:25:44;100550.16;;;3.87;100.00
72116;BME280;59991;52.140;5.428;2024-01-06T02:26:34;100544.78;;;3.87;100.00
72116;BME280;59991;52.140;5.428;2024-01-06T02:27:05;100544.44;;;3.88;100.00
72116;BME280;59991;52.140;5.428;2024-01-06T02:27:39;100552.84;;;3.87;100.00
72116;BME280;59991;52.140;5.428;2024-01-06T02:28:11;100544.34;;;3.85;100.00
72116;BME280;59991;52.140;5.428;2024-01-06T02:28:42;100548.59;;;3.86;100.00
72116;BME280;59991;52.140;5.428;2024-01-06T02:29:19;100549.75;;;3.85;100.00
72116;BME280;59991;52.140;5.428;2024-01-06T02:29:50;100551.28;;;3.86;100.00
72116;BME280;59991;52.140;5.428;2024-01-06T02:30:22;100548.94;;;3.84;100.00
72116;BME280;59991;52.140;5.428;2024-01-06T02:31:45;100547.03;;;3.85;100.00
72116;BME280;59991;52.140;5.428;2024-01-06T02:32:17;100547.81;;;3.85;100.00
72116;BME280;59991;52.140;5.428;2024-01-06T02:32:48;100545.09;;;3.85;100.00
72116;BME280;59991;52.140;5.428;2024-01-06T02:33:37;100547.81;;;3.85;100.00
72116;BME280;59991;52.140;5.428;2024-01-06T02:34:10;100551.66;;;3.84;100.00
72116;BME280;59991;52.140;5.428;2024-01-06T02:34:41;100557.03;;;3.84;100.00
72116;BME280;59991;52.140;5.428;2024-01-06T02:35:13;100551.66;;;3.84;100.00
72116;BME280;59991;52.140;5.428;2024-01-06T02:35:46;100558.16;;;3.83;100.00
72116;BME280;59991;52.140;5.428;2024-01-06T02:36:17;100553.56;;;3.84;100.00
72116;BME280;59991;52.140;5.428;2024-01-06T02:36:49;100549.28;;;3.83;100.00
72116;BME280;59991;52.140;5.428;2024-01-06T02:37:20;100555.47;;;3.83;100.00
72116;BME280;59991;52.140;5.428;2024-01-06T02:37:52;100556.59;;;3.82;100.00
72116;BME280;59991;52.140;5.428;2024-01-06T02:38:23;100556.59;;;3.82;100.00
72116;BME280;59991;52.140;5.428;2024-01-06T02:39:13;100556.59;;;3.82;100.00
72116;BME280;59991;52.140;5.428;2024-01-06T02:39:44;100558.16;;;3.83;100.00
72116;BME280;59991;52.140;5.428;2024-01-06T02:40:16;100567.84;;;3.84;100.00
72116;BME280;59991;52.140;5.428;2024-01-06T02:41:05;100566.69;;;3.85;100.00
72116;BME280;59991;52.140;5.428;2024-01-06T02:41:37;100565.13;;;3.84;100.00
72116;BME280;59991;52.140;5.428;2024-01-06T02:42:08;100572.44;;;3.84;100.00
72116;BME280;59991;52.140;5.428;2024-01-06T02:42:40;100569.75;;;3.84;100.00
72116;BME280;59991;52.140;5.428;2024-01-06T02:43:12;100566.59;;;3.81;100.00
72116;BME280;59991;52.140;5.428;2024-01-06T02:43:44;100568.97;;;3.83;100.00
72116;BME280;59991;52.140;5.428;2024-01-06T02:44:15;100568.97;;;3.83;100.00
72116;BME280;59991;52.140;5.428;2024-01-06T02:44:47;100570.88;;;3.83;100.00
72116;BME280;59991;52.140;5.428;2024-01-06T02:45:18;100572.78;;;3.82;100.00
72116;BME280;59991;52.140;5.428;2024-01-06T02:45:50;100577.06;;;3.83;100.00
72116;BME280;59991;52.140;5.428;2024-01-06T02:46:21;100573.22;;;3.84;100.00
72116;BME280;59991;52.140;5.428;2024-01-06T02:46:53;100576.25;;;3.83;100.00
72116;BME280;59991;52.140;5.428;2024-01-06T02:47:43;100574.03;;;3.85;100.00
72116;BME280;59991;52.140;5.428;2024-01-06T02:48:15;100574.03;;;3.85;100.00
72116;BME280;59991;52.140;5.428;2024-01-06T02:48:47;100579.03;;;3.86;100.00
72116;BME280;59991;52.140;5.428;2024-01-06T02:49:19;100580.16;;;3.85;100.00
72116;BME280;59991;52.140;5.428;2024-01-06T02:49:51;100575.22;;;3.87;100.00
72116;BME280;59991;52.140;5.428;2024-01-06T02:50:22;100579.50;;;3.88;100.00
72116;BME280;59991;52.140;5.428;2024-01-06T02:50:54;100571.75;;;3.87;100.00
72116;BME280;59991;52.140;5.428;2024-01-06T02:51:25;100575.22;;;3.87;100.00
72116;BME280;59991;52.140;5.428;2024-01-06T02:51:57;100583.31;;;3.87;100.00
72116;BME280;59991;52.140;5.428;2024-01-06T02:52:29;100581.41;;;3.88;100.00
72116;BME280;59991;52.140;5.428;2024-01-06T02:53:00;100582.53;;;3.87;100.00
72116;BME280;59991;52.140;5.428;2024-01-06T02:53:32;100582.88;;;3.85;100.00
72116;BME280;59991;52.140;5.428;2024-01-06T02:54:03;100579.41;;;3.85;100.00
72116;BME280;59991;52.140;5.428;2024-01-06T02:54:35;100581.31;;;3.84;100.00
72116;BME280;59991;52.140;5.428;2024-01-06T02:55:07;100580.53;;;3.84;100.00
72116;BME280;59991;52.140;5.428;2024-01-06T02:55:39;100580.53;;;3.84;100.00
72116;BME280;59991;52.140;5.428;2024-01-06T02:56:11;100579.75;;;3.83;100.00
72116;BME280;59991;52.140;5.428;2024-01-06T02:56:43;100584.00;;;3.84;100.00
72116;BME280;59991;52.140;5.428;2024-01-06T02:57:15;100579.41;;;3.85;100.00